Time;durP1;ratioP1;P1;durP2;ratioP2;P2;SDS_P1;SDS_P2;PMS_P1;PMS_P2;Temp;Humidity;BMP_temperature;BMP_pressure;BME280_temperature;BME280_humidity;BME280_pressure;Samples;Min_cycle;Max_cycle;Signal;HPM_P1;HPM_P2
2022/08/29 00:01:54;;;;;;;27.03;25.30;;;18.30;86.90;;;;;;4984332;28;20494;-72
2022/08/29 00:04:21;;;;;;;26.33;24.70;;;18.20;87.20;;;;;;4984726;28;20475;-72
2022/08/29 00:06:48;;;;;;;25.20;23.90;;;18.20;87.40;;;;;;4984895;28;20491;-72
2022/08/29 00:09:14;;;;;;;26.13;24.53;;;18.20;87.50;;;;;;4983643;28;20554;-72
2022/08/29 00:11:41;;;;;;;25.03;23.67;;;18.20;87.40;;;;;;4980128;28;21008;-72
2022/08/29 00:14:10;;;;;;;25.50;24.10;;;18.20;87.50;;;;;;4989711;28;20458;-71
2022/08/29 00:16:37;;;;;;;26.37;24.73;;;18.20;87.20;;;;;;4983393;28;21010;-72
2022/08/29 00:19:04;;;;;;;25.40;23.90;;;18.10;87.30;;;;;;4979863;28;20460;-72
2022/08/29 00:21:31;;;;;;;26.23;24.50;;;18.10;87.30;;;;;;4988455;28;20581;-72
2022/08/29 00:23:58;;;;;;;25.13;23.53;;;18.10;87.10;;;;;;4982951;28;20469;-73
2022/08/29 00:26:25;;;;;;;27.17;25.57;;;18.10;87.10;;;;;;4985557;28;20483;-73
2022/08/29 00:28:52;;;;;;;26.63;24.70;;;18.00;87.30;;;;;;4982857;28;21195;-72
2022/08/29 00:31:20;;;;;;;27.67;25.97;;;18.00;87.70;;;;;;4982478;28;20478;-72
2022/08/29 00:33:47;;;;;;;24.33;22.93;;;17.90;87.90;;;;;;4985605;28;20471;-72
2022/08/29 00:36:14;;;;;;;26.17;24.57;;;17.90;87.90;;;;;;4989268;28;20466;-72
2022/08/29 00:38:41;;;;;;;26.13;24.40;;;18.00;87.70;;;;;;4996116;28;20484;-72
2022/08/29 00:41:08;;;;;;;25.67;24.27;;;18.00;87.50;;;;;;4979130;28;20589;-72
2022/08/29 00:43:37;;;;;;;26.60;25.03;;;17.90;87.20;;;;;;4979626;28;20548;-72
2022/08/29 00:46:17;;;;;;;26.00;24.60;;;18.00;86.70;;;;;;4988611;28;20870;-72
2022/08/29 00:48:50;;;;;;;28.33;26.30;;;17.90;86.60;;;;;;4989999;28;20475;-72
2022/08/29 00:51:19;;;;;;;26.97;25.17;;;17.80;87.20;;;;;;4981874;28;20513;-72
2022/08/29 00:53:50;;;;;;;25.37;23.97;;;17.80;87.40;;;;;;4992749;28;20496;-72
2022/08/29 00:56:17;;;;;;;26.00;24.50;;;17.90;87.10;;;;;;4982111;28;20992;-72
2022/08/29 00:58:49;;;;;;;25.87;24.17;;;17.80;87.10;;;;;;4984037;28;20821;-72
2022/08/29 01:01:17;;;;;;;27.07;25.20;;;17.80;87.30;;;;;;4974579;28;20485;-72
2022/08/29 01:03:47;;;;;;;27.60;25.80;;;17.70;87.50;;;;;;4986458;28;20455;-73
2022/08/29 01:06:14;;;;;;;27.50;25.77;;;17.70;87.70;;;;;;4981970;28;20493;-72
2022/08/29 01:08:41;;;;;;;26.73;24.97;;;17.60;87.70;;;;;;4996489;28;20550;-72
2022/08/29 01:17:54;;;;;;;26.67;24.93;;;17.60;87.60;;;;;;4994907;28;20443;-72
2022/08/29 01:20:31;;;;;;;25.67;24.27;;;17.50;87.90;;;;;;4990755;28;20540;-72
2022/08/29 01:23:02;;;;;;;25.43;24.00;;;17.60;87.80;;;;;;4989073;28;20484;-72
2022/08/29 01:25:36;;;;;;;26.37;24.87;;;17.60;87.40;;;;;;4984622;28;20551;-72
2022/08/29 01:28:06;;;;;;;25.10;23.70;;;17.50;87.50;;;;;;4982459;28;20561;-72
2022/08/29 01:30:34;;;;;;;27.87;26.07;;;17.50;87.40;;;;;;4975568;28;20477;-72
2022/08/29 01:33:01;;;;;;;25.77;24.27;;;17.40;87.80;;;;;;4983285;28;20471;-72
2022/08/29 01:35:29;;;;;;;25.17;23.57;;;17.40;88.00;;;;;;4987294;28;20465;-72
2022/08/29 01:37:56;;;;;;;26.57;24.97;;;17.40;87.70;;;;;;4984583;28;20478;-72
2022/08/29 01:40:30;;;;;;;25.43;24.03;;;17.30;87.90;;;;;;4982943;28;20465;-72
2022/08/29 01:42:57;;;;;;;27.53;25.80;;;17.30;87.90;;;;;;4987515;28;20511;-72
2022/08/29 01:45:24;;;;;;;25.53;24.10;;;17.20;88.10;;;;;;4995189;28;20467;-72
2022/08/29 01:47:51;;;;;;;25.30;23.90;;;17.20;88.20;;;;;;4981648;28;20997;-72
2022/08/29 01:50:18;;;;;;;25.10;23.70;;;17.20;88.20;;;;;;4985374;28;20462;-72
2022/08/29 01:52:45;;;;;;;25.23;23.70;;;17.20;88.20;;;;;;4983736;28;20478;-72
2022/08/29 01:55:12;;;;;;;25.80;24.40;;;17.20;88.00;;;;;;4983858;28;20465;-72
2022/08/29 01:57:40;;;;;;;25.60;24.20;;;17.20;87.90;;;;;;4986833;28;20462;-72
2022/08/29 02:00:09;;;;;;;25.63;23.90;;;17.20;88.00;;;;;;4984695;28;20512;-71
2022/08/29 02:02:37;;;;;;;26.67;25.07;;;17.20;87.90;;;;;;4986572;28;20500;-71
2022/08/29 02:05:04;;;;;;;27.17;25.60;;;17.20;87.80;;;;;;4983592;28;20822;-72
2022/08/29 02:07:31;;;;;;;27.80;25.93;;;17.10;88.10;;;;;;4983613;28;20492;-72
2022/08/29 02:09:58;;;;;;;25.90;24.23;;;16.90;88.60;;;;;;4972187;28;20473;-71
2022/08/29 02:12:25;;;;;;;27.20;25.60;;;16.90;89.10;;;;;;4981501;28;20482;-72
2022/08/29 02:14:53;;;;;;;25.07;23.57;;;16.90;89.00;;;;;;4989920;28;20772;-72
2022/08/29 02:17:20;;;;;;;26.83;25.13;;;16.90;88.80;;;;;;4988797;28;20457;-71
2022/08/29 02:19:47;;;;;;;27.00;25.40;;;16.90;88.80;;;;;;4977807;28;20488;-71
2022/08/29 02:22:14;;;;;;;25.83;24.23;;;17.00;88.60;;;;;;4991491;28;20496;-72
2022/08/29 02:24:42;;;;;;;25.73;24.30;;;17.00;88.60;;;;;;4991055;28;20480;-71
2022/08/29 02:27:11;;;;;;;48.53;46.03;;;17.00;88.30;;;;;;4981932;28;20478;-71
2022/08/29 02:29:38;;;;;;;25.37;23.97;;;16.90;88.10;;;;;;4976879;28;20476;-71
2022/08/29 02:32:10;;;;;;;26.50;24.90;;;16.80;88.40;;;;;;4988209;28;20596;-71
2022/08/29 02:34:38;;;;;;;27.93;26.03;;;16.80;88.70;;;;;;4983257;28;21010;-71
2022/08/29 02:37:06;;;;;;;29.20;27.60;;;16.70;89.00;;;;;;4988702;28;20469;-71
2022/08/29 02:39:33;;;;;;;24.30;22.80;;;16.70;89.20;;;;;;4978713;28;20477;-71
2022/08/29 02:42:00;;;;;;;24.83;23.30;;;16.70;89.30;;;;;;4980223;28;20887;-71
2022/08/29 02:44:27;;;;;;;26.13;24.53;;;16.80;89.20;;;;;;4984527;28;20461;-71
2022/08/29 02:46:54;;;;;;;25.03;23.50;;;16.70;88.60;;;;;;4988040;28;20488;-71
2022/08/29 02:49:22;;;;;;;28.13;26.40;;;16.70;88.70;;;;;;4979319;28;22248;-71
2022/08/29 02:51:48;;;;;;;45.93;43.40;;;16.60;89.00;;;;;;4993167;28;20554;-71
2022/08/29 02:54:16;;;;;;;44.43;42.07;;;16.60;89.10;;;;;;4981928;28;20461;-73
2022/08/29 02:56:42;;;;;;;28.00;26.30;;;16.60;89.20;;;;;;4988342;28;20465;-73
2022/08/29 02:59:09;;;;;;;27.27;25.30;;;16.50;89.20;;;;;;4983644;28;20467;-73
2022/08/29 03:01:37;;;;;;;25.97;24.47;;;16.50;89.30;;;;;;4982637;28;20483;-73
2022/08/29 03:04:05;;;;;;;48.73;46.17;;;16.50;89.30;;;;;;4984970;28;20447;-73
2022/08/29 03:06:33;;;;;;;25.73;24.40;;;16.50;89.30;;;;;;4983896;28;20494;-71
2022/08/29 03:09:00;;;;;;;22.50;21.23;;;16.40;89.50;;;;;;4996773;28;20467;-73
2022/08/29 03:11:28;;;;;;;42.90;40.63;;;16.50;89.20;;;;;;4984334;28;20502;-73
2022/08/29 03:13:55;;;;;;;33.37;31.30;;;16.40;89.50;;;;;;4986008;28;20463;-73
2022/08/29 03:16:22;;;;;;;29.93;28.10;;;16.40;89.60;;;;;;4987018;28;20458;-73
2022/08/29 03:18:49;;;;;;;27.70;25.90;;;16.40;89.30;;;;;;4983972;28;20468;-73
2022/08/29 03:21:18;;;;;;;25.90;24.00;;;16.50;89.00;;;;;;4985606;28;20485;-72
2022/08/29 03:23:47;;;;;;;25.43;23.60;;;16.40;89.00;;;;;;4986001;28;20495;-73
2022/08/29 03:26:14;;;;;;;44.77;42.07;;;16.30;89.50;;;;;;4979246;28;20480;-73
2022/08/29 03:28:41;;;;;;;27.70;26.10;;;16.30;89.90;;;;;;4979964;28;20967;-73
2022/08/29 03:31:08;;;;;;;37.07;35.00;;;16.30;89.70;;;;;;4984216;28;20486;-73
2022/08/29 03:33:35;;;;;;;27.43;25.87;;;16.20;90.00;;;;;;4988365;28;20501;-72
2022/08/29 03:36:02;;;;;;;30.17;28.47;;;16.30;89.80;;;;;;4983291;28;20463;-73
2022/08/29 03:38:29;;;;;;;26.00;24.30;;;16.30;89.90;;;;;;4988041;28;20847;-73
2022/08/29 03:40:58;;;;;;;26.40;24.90;;;16.20;90.00;;;;;;4978913;28;20591;-73
2022/08/29 03:43:24;;;;;;;25.60;24.10;;;16.20;90.10;;;;;;4985376;28;20482;-73
2022/08/29 03:45:53;;;;;;;24.37;22.67;;;16.20;90.10;;;;;;4984802;28;20468;-73
2022/08/29 03:48:20;;;;;;;30.40;28.70;;;16.20;90.00;;;;;;4980545;28;20460;-73
2022/08/29 03:50:47;;;;;;;24.30;22.67;;;16.30;89.60;;;;;;4978797;28;20470;-73
2022/08/29 03:53:14;;;;;;;35.20;33.23;;;16.20;89.60;;;;;;4983487;28;20473;-73
2022/08/29 03:55:41;;;;;;;29.53;27.80;;;16.10;90.00;;;;;;4984487;28;20467;-73
2022/08/29 03:58:09;;;;;;;26.43;24.83;;;16.10;90.20;;;;;;4984676;28;20466;-73
2022/08/29 04:00:36;;;;;;;27.73;25.63;;;16.00;90.40;;;;;;4980965;28;20505;-73
2022/08/29 04:03:03;;;;;;;26.50;24.77;;;16.00;90.50;;;;;;4979689;28;20465;-71
2022/08/29 04:05:30;;;;;;;42.83;40.77;;;16.00;90.60;;;;;;4978011;28;20458;-71
2022/08/29 04:07:59;;;;;;;44.87;42.57;;;16.00;90.60;;;;;;4984930;28;20479;-72
2022/08/29 04:10:28;;;;;;;32.87;31.10;;;16.10;90.60;;;;;;4982933;28;20548;-71
2022/08/29 04:12:55;;;;;;;47.67;45.33;;;16.10;90.50;;;;;;4990759;28;20482;-72
2022/08/29 04:15:25;;;;;;;42.07;40.07;;;16.10;90.00;;;;;;4977420;28;20475;-72
2022/08/29 04:17:54;;;;;;;23.97;22.47;;;16.00;90.10;;;;;;4985613;28;20466;-72
2022/08/29 04:20:22;;;;;;;36.50;34.63;;;16.00;90.30;;;;;;4989186;28;20495;-71
2022/08/29 04:22:49;;;;;;;24.70;23.30;;;15.90;90.70;;;;;;4982710;28;20561;-71
2022/08/29 04:25:17;;;;;;;24.00;22.50;;;15.90;90.80;;;;;;4976534;28;20481;-71
2022/08/29 04:27:44;;;;;;;49.30;46.70;;;15.80;91.00;;;;;;4987337;28;20499;-71
2022/08/29 04:30:14;;;;;;;23.93;22.53;;;15.80;90.90;;;;;;4984217;28;20465;-72
2022/08/29 04:32:43;;;;;;;27.43;25.73;;;15.80;90.90;;;;;;4981471;28;20513;-72
2022/08/29 04:35:12;;;;;;;24.97;23.53;;;15.80;90.80;;;;;;4991890;28;20458;-72
2022/08/29 04:37:39;;;;;;;26.53;24.70;;;15.80;90.90;;;;;;4980905;28;20452;-72
2022/08/29 04:40:08;;;;;;;29.77;28.13;;;15.80;90.80;;;;;;4985147;28;20463;-72
2022/08/29 04:42:36;;;;;;;24.17;22.63;;;15.90;90.50;;;;;;4993340;28;21538;-72
2022/08/29 04:45:03;;;;;;;51.00;48.30;;;15.90;90.60;;;;;;4984732;28;20456;-77
2022/08/29 04:47:30;;;;;;;31.13;29.33;;;16.00;90.50;;;;;;4994860;28;20490;-73
2022/08/29 04:49:58;;;;;;;24.00;22.50;;;15.90;90.30;;;;;;4985698;28;20488;-73
2022/08/29 04:52:27;;;;;;;36.43;34.10;;;15.90;90.10;;;;;;4996172;28;20578;-73
2022/08/29 04:54:55;;;;;;;24.00;22.60;;;15.90;90.40;;;;;;4984994;28;20458;-75
2022/08/29 04:57:23;;;;;;;25.17;23.77;;;15.90;90.40;;;;;;4991219;28;20454;-71
2022/08/29 04:59:53;;;;;;;25.87;24.17;;;15.90;90.10;;;;;;4976452;28;20469;-72
2022/08/29 05:02:20;;;;;;;41.53;39.23;;;16.00;90.10;;;;;;4977481;28;20490;-72
2022/08/29 05:04:51;;;;;;;54.67;52.27;;;16.00;89.90;;;;;;4981009;28;20593;-72
2022/08/29 05:07:20;;;;;;;45.80;43.47;;;16.10;89.60;;;;;;4980678;28;20548;-72
2022/08/29 05:09:48;;;;;;;26.77;25.20;;;16.00;89.30;;;;;;4984849;28;20829;-72
2022/08/29 05:12:15;;;;;;;23.10;21.70;;;16.10;89.40;;;;;;4989639;28;20486;-72
2022/08/29 05:14:42;;;;;;;36.93;34.93;;;16.10;89.50;;;;;;4987106;28;20455;-73
2022/08/29 05:17:09;;;;;;;27.60;25.90;;;16.10;89.10;;;;;;4987211;28;20462;-72
2022/08/29 05:19:42;;;;;;;41.43;39.20;;;16.20;89.10;;;;;;4986702;28;20476;-72
2022/08/29 05:22:09;;;;;;;24.93;23.47;;;16.30;89.00;;;;;;4983854;28;20477;-72
2022/08/29 05:24:38;;;;;;;27.50;25.90;;;16.30;89.10;;;;;;4984605;28;20468;-72
2022/08/29 05:27:08;;;;;;;42.20;39.80;;;16.40;89.00;;;;;;4986922;28;20511;-72
2022/08/29 05:29:38;;;;;;;41.73;39.47;;;16.50;88.60;;;;;;4988277;28;20632;-72
2022/08/29 05:32:07;;;;;;;44.73;42.47;;;16.50;88.30;;;;;;4985299;28;20563;-72
2022/08/29 05:34:34;;;;;;;24.50;23.00;;;16.60;87.90;;;;;;4980660;28;20835;-72
2022/08/29 05:37:01;;;;;;;27.67;26.20;;;16.60;88.30;;;;;;4985674;28;20878;-72
2022/08/29 05:39:28;;;;;;;53.00;50.47;;;16.70;88.30;;;;;;4985542;28;20466;-72
2022/08/29 05:41:57;;;;;;;29.73;28.07;;;16.80;88.20;;;;;;4994907;28;20807;-71
2022/08/29 05:44:25;;;;;;;35.17;33.23;;;16.90;87.50;;;;;;4987837;28;20488;-72
2022/08/29 05:46:51;;;;;;;30.00;28.20;;;17.00;86.70;;;;;;4986513;28;20520;-71
2022/08/29 05:49:18;;;;;;;31.73;29.87;;;17.00;86.50;;;;;;4987452;28;20986;-71
2022/08/29 05:51:45;;;;;;;27.33;25.73;;;17.00;86.10;;;;;;4979374;28;20482;-72
2022/08/29 05:54:12;;;;;;;43.90;41.70;;;17.00;86.50;;;;;;4990310;28;20475;-72
2022/08/29 05:56:39;;;;;;;26.93;25.37;;;17.10;86.30;;;;;;4988400;28;20449;-75
2022/08/29 05:59:10;;;;;;;30.27;28.60;;;17.10;86.30;;;;;;4996292;28;20457;-77
2022/08/29 06:01:37;;;;;;;41.27;39.30;;;17.20;86.40;;;;;;4982284;28;20488;-75
2022/08/29 06:04:04;;;;;;;47.60;44.73;;;17.30;85.90;;;;;;4982204;28;20819;-70
2022/08/29 06:06:31;;;;;;;27.07;25.67;;;17.20;85.70;;;;;;4980998;28;20459;-72
2022/08/29 06:08:59;;;;;;;30.60;28.90;;;17.20;85.90;;;;;;4986115;28;20540;-72
2022/08/29 06:11:28;;;;;;;28.23;26.80;;;17.20;86.00;;;;;;4988511;28;20513;-73
2022/08/29 06:13:56;;;;;;;27.90;26.20;;;17.20;85.90;;;;;;4987399;28;20532;-74
2022/08/29 06:16:26;;;;;;;31.37;29.57;;;17.30;85.80;;;;;;4982813;28;20462;-73
2022/08/29 06:18:53;;;;;;;26.30;24.53;;;17.50;85.50;;;;;;4986390;28;20477;-72
2022/08/29 06:21:21;;;;;;;29.90;27.90;;;17.70;85.20;;;;;;4987900;28;20480;-72
2022/08/29 06:23:49;;;;;;;29.63;27.53;;;17.90;84.50;;;;;;4979554;28;20482;-74
2022/08/29 06:26:16;;;;;;;40.90;38.80;;;18.00;83.80;;;;;;4975951;28;20463;-71
2022/08/29 06:28:45;;;;;;;32.27;30.37;;;18.20;83.40;;;;;;4979842;28;20911;-71
2022/08/29 06:31:14;;;;;;;36.50;34.30;;;18.30;82.60;;;;;;4989556;28;20495;-71
2022/08/29 06:33:43;;;;;;;38.30;36.20;;;18.40;81.90;;;;;;4985049;28;20471;-72
2022/08/29 06:36:11;;;;;;;50.83;47.90;;;18.50;81.30;;;;;;4982135;28;20478;-71
2022/08/29 06:38:39;;;;;;;34.10;32.30;;;18.70;80.70;;;;;;4981964;28;20480;-72
2022/08/29 06:41:07;;;;;;;47.40;44.87;;;18.80;80.50;;;;;;4974376;28;20484;-71
2022/08/29 06:43:34;;;;;;;45.87;43.40;;;18.90;80.30;;;;;;4981507;28;20499;-71
2022/08/29 06:46:01;;;;;;;54.10;51.27;;;19.10;79.60;;;;;;4979887;28;20466;-69
2022/08/29 06:48:28;;;;;;;41.07;38.20;;;19.30;79.20;;;;;;4982893;28;20490;-69
2022/08/29 06:50:56;;;;;;;35.17;33.10;;;19.40;78.90;;;;;;4980620;28;20546;-71
2022/08/29 06:53:29;;;;;;;41.37;39.23;;;19.40;78.80;;;;;;4977282;28;20469;-71
2022/08/29 06:55:57;;;;;;;31.90;30.20;;;19.50;78.70;;;;;;4980746;28;20470;-72
2022/08/29 06:58:24;;;;;;;34.10;32.13;;;19.60;78.60;;;;;;4986109;28;20456;-72
2022/08/29 07:00:51;;;;;;;48.27;45.70;;;19.70;78.40;;;;;;4985361;28;20471;-70
2022/08/29 07:03:18;;;;;;;56.30;53.20;;;19.80;77.90;;;;;;4986973;28;20475;-71
2022/08/29 07:05:51;;;;;;;46.70;44.10;;;20.00;77.70;;;;;;4983615;28;20809;-71
2022/08/29 07:08:22;;;;;;;36.93;34.80;;;20.10;77.60;;;;;;4987642;28;22968;-71
2022/08/29 07:10:49;;;;;;;38.27;36.00;;;20.20;77.30;;;;;;4979040;28;20561;-71
2022/08/29 07:13:17;;;;;;;41.77;39.40;;;20.30;77.00;;;;;;4985075;28;20462;-71
2022/08/29 07:15:44;;;;;;;55.20;52.10;;;20.30;76.60;;;;;;4979507;28;20477;-74
2022/08/29 07:18:10;;;;;;;53.50;50.63;;;20.30;76.50;;;;;;4992725;28;20465;-76
2022/08/29 07:20:38;;;;;;;46.47;43.97;;;20.30;76.50;;;;;;4980641;28;20458;-74
2022/08/29 07:23:05;;;;;;;43.43;41.20;;;20.50;76.20;;;;;;4987843;28;20462;-73
2022/08/29 07:25:34;;;;;;;59.67;56.47;;;20.60;75.70;;;;;;4992833;28;20467;-75
2022/08/29 07:28:02;;;;;;;39.17;36.87;;;20.50;76.20;;;;;;4987669;28;21185;-71
2022/08/29 07:30:29;;;;;;;58.27;54.80;;;20.60;76.40;;;;;;4978132;28;20462;-70
2022/08/29 07:32:56;;;;;;;51.83;48.90;;;20.60;76.40;;;;;;4994943;28;20477;-70
2022/08/29 07:35:24;;;;;;;52.00;49.23;;;20.60;76.50;;;;;;4980957;28;20466;-72
2022/08/29 07:37:51;;;;;;;50.83;47.93;;;20.70;76.40;;;;;;4983066;28;20552;-69
2022/08/29 07:40:18;;;;;;;39.97;37.47;;;20.80;76.40;;;;;;4984813;28;20521;-70
2022/08/29 07:42:46;;;;;;;47.47;44.77;;;20.90;75.80;;;;;;4987428;28;20512;-76
2022/08/29 07:45:13;;;;;;;50.50;47.80;;;21.00;75.50;;;;;;4980625;28;20468;-70
2022/08/29 07:47:41;;;;;;;54.83;51.90;;;21.00;75.60;;;;;;4983540;28;20486;-73
2022/08/29 07:50:10;;;;;;;43.53;40.60;;;21.10;75.30;;;;;;4985517;28;20509;-70
2022/08/29 07:52:37;;;;;;;41.33;39.03;;;21.10;75.30;;;;;;4986621;28;20481;-70
2022/08/29 07:55:05;;;;;;;38.33;36.00;;;21.20;75.10;;;;;;4975209;28;20474;-71
2022/08/29 07:57:32;;;;;;;59.00;55.70;;;21.20;75.30;;;;;;4984286;28;20454;-72
2022/08/29 08:00:03;;;;;;;48.77;45.90;;;21.40;74.90;;;;;;4975428;28;20582;-72
2022/08/29 08:02:30;;;;;;;63.40;59.90;;;21.60;74.60;;;;;;4992722;28;21056;-71
2022/08/29 08:04:57;;;;;;;49.60;46.70;;;21.80;74.20;;;;;;4994100;28;20458;-72
2022/08/29 08:07:24;;;;;;;46.67;44.13;;;21.80;73.60;;;;;;4993382;28;20514;-72
2022/08/29 08:09:51;;;;;;;45.97;43.40;;;21.80;73.60;;;;;;4982484;28;20959;-72
2022/08/29 08:12:18;;;;;;;41.60;39.20;;;21.90;73.30;;;;;;4978815;28;20560;-71
2022/08/29 08:14:45;;;;;;;51.67;48.90;;;22.00;73.20;;;;;;4985898;28;20617;-71
2022/08/29 08:17:14;;;;;;;56.23;53.07;;;22.10;73.00;;;;;;4989446;28;20465;-71
2022/08/29 08:19:41;;;;;;;54.63;51.70;;;22.20;72.40;;;;;;4987926;28;20466;-72
2022/08/29 08:22:08;;;;;;;51.30;48.30;;;22.30;71.90;;;;;;4984396;28;21078;-72
2022/08/29 08:24:35;;;;;;;41.90;39.37;;;22.20;72.10;;;;;;4987213;28;20864;-72
2022/08/29 08:27:02;;;;;;;47.70;45.00;;;22.30;71.90;;;;;;4981182;28;20898;-72
2022/08/29 08:29:29;;;;;;;63.30;59.40;;;22.20;72.50;;;;;;4985332;28;20484;-72
2022/08/29 08:31:58;;;;;;;56.07;52.50;;;22.30;72.10;;;;;;4989111;28;21024;-72
2022/08/29 08:34:28;;;;;;;52.00;49.00;;;22.50;71.80;;;;;;4988587;28;20473;-72
2022/08/29 08:36:55;;;;;;;51.40;48.50;;;22.50;71.90;;;;;;4996730;28;20902;-72
2022/08/29 08:39:22;;;;;;;45.10;42.40;;;22.70;71.00;;;;;;4984933;28;20974;-72
2022/08/29 08:41:54;;;;;;;44.63;41.83;;;22.80;70.60;;;;;;4981336;28;21103;-72
2022/08/29 08:44:51;;;;;;;43.10;40.60;;;22.90;70.50;;;;;;4980331;28;20823;-72
2022/08/29 08:47:24;;;;;;;45.77;42.90;;;22.90;70.40;;;;;;4984505;28;21146;-71
2022/08/29 08:49:58;;;;;;;51.17;48.27;;;23.00;69.90;;;;;;4985716;28;20521;-72
2022/08/29 08:52:33;;;;;;;43.63;40.87;;;23.10;69.60;;;;;;4980294;28;20481;-72
2022/08/29 08:55:04;;;;;;;49.93;47.20;;;23.00;69.80;;;;;;4989204;28;20459;-72
2022/08/29 08:57:38;;;;;;;42.67;39.97;;;23.10;70.00;;;;;;4994018;28;20467;-72
2022/08/29 09:00:09;;;;;;;45.53;42.77;;;23.20;69.30;;;;;;4980328;28;21008;-71
2022/08/29 09:02:47;;;;;;;49.97;46.93;;;23.30;69.00;;;;;;4990187;28;20486;-71
2022/08/29 09:05:38;;;;;;;43.37;40.67;;;23.30;69.20;;;;;;4985179;28;20509;-72
2022/08/29 09:08:13;;;;;;;44.60;41.73;;;23.50;68.90;;;;;;4988728;28;20524;-73
2022/08/29 09:10:47;;;;;;;42.27;39.93;;;23.70;68.20;;;;;;4993746;28;20497;-73
2022/08/29 09:13:29;;;;;;;48.57;45.57;;;23.70;68.30;;;;;;4989650;28;20473;-72
2022/08/29 09:16:00;;;;;;;44.27;41.77;;;23.90;67.40;;;;;;4983840;28;20463;-72
2022/08/29 09:18:32;;;;;;;48.93;45.90;;;23.90;67.20;;;;;;5003439;28;20478;-73
2022/08/29 09:21:02;;;;;;;51.83;48.83;;;23.90;67.30;;;;;;4995242;28;21011;-73
2022/08/29 09:23:34;;;;;;;55.37;52.07;;;24.00;66.70;;;;;;4991328;28;20500;-73
2022/08/29 09:26:01;;;;;;;54.53;51.73;;;24.10;66.20;;;;;;4990954;28;20461;-72
2022/08/29 09:28:28;;;;;;;45.37;42.87;;;24.10;66.50;;;;;;4990445;28;21070;-73
2022/08/29 09:31:22;;;;;;;51.10;48.40;;;24.20;66.20;;;;;;4994847;28;20465;-73
2022/08/29 09:33:51;;;;;;;58.87;55.50;;;24.40;65.40;;;;;;4980391;28;20469;-72
2022/08/29 09:39:18;;;;;;;47.03;44.40;;;24.50;65.20;;;;;;5124536;27;20544;-72
2022/08/29 09:41:48;;;;;;;41.27;38.67;;;24.80;64.30;;;;;;5085616;28;20542;-73
2022/08/29 09:44:20;;;;;;;55.90;52.60;;;24.90;64.60;;;;;;5085811;28;20540;-73
2022/08/29 09:47:03;;;;;;;47.67;45.07;;;25.00;63.50;;;;;;5088237;28;20484;-72
2022/08/29 09:49:30;;;;;;;45.50;42.90;;;24.90;64.00;;;;;;5093067;28;20456;-72
2022/08/29 09:52:11;;;;;;;45.10;42.57;;;25.00;63.90;;;;;;5101725;28;20529;-72
2022/08/29 09:54:40;;;;;;;39.90;37.50;;;25.10;63.30;;;;;;5091265;28;20461;-73
2022/08/29 09:57:20;;;;;;;43.23;40.93;;;25.10;63.00;;;;;;5096924;28;20854;-72
2022/08/29 10:02:27;;;;;;;46.50;44.00;;;25.00;62.60;;;;;;5378986;22;20509;-71
2022/08/29 10:04:59;;;;;;;44.43;42.03;;;25.20;62.80;;;;;;5035610;28;20469;-72
2022/08/29 10:07:29;;;;;;;51.70;48.70;;;25.10;62.40;;;;;;5037850;28;20534;-72
2022/08/29 10:10:01;;;;;;;40.20;37.80;;;25.10;62.20;;;;;;5040569;28;20459;-73
2022/08/29 10:12:43;;;;;;;44.37;42.00;;;25.10;61.90;;;;;;5043173;28;20505;-74
2022/08/29 10:15:16;;;;;;;38.63;36.63;;;25.20;61.70;;;;;;5041104;28;21023;-75
2022/08/29 10:20:46;;;;;;;39.43;37.43;;;25.50;61.00;;;;;;5038982;28;20536;-74
2022/08/29 10:23:21;;;;;;;41.50;39.40;;;25.60;60.70;;;;;;5040285;28;20461;-74
2022/08/29 10:25:52;;;;;;;42.77;40.67;;;25.80;60.60;;;;;;5041694;28;20979;-73
2022/08/29 10:28:29;;;;;;;54.80;52.00;;;26.00;58.60;;;;;;5038493;28;20461;-74
2022/08/29 10:31:01;;;;;;;45.00;42.70;;;26.20;58.00;;;;;;5033197;28;20514;-74
2022/08/29 10:33:51;;;;;;;48.50;45.60;;;26.10;58.50;;;;;;5032083;28;20506;-75
2022/08/29 10:36:25;;;;;;;51.30;47.87;;;26.00;59.20;;;;;;5040488;28;20462;-73
2022/08/29 10:38:59;;;;;;;54.40;51.57;;;26.20;58.70;;;;;;5042094;28;20476;-71
2022/08/29 10:41:33;;;;;;;55.90;52.77;;;26.30;58.20;;;;;;5042748;28;20513;-72
2022/08/29 10:44:19;;;;;;;43.43;40.63;;;26.20;58.70;;;;;;5039996;28;20477;-72
2022/08/29 10:47:09;;;;;;;45.03;42.57;;;26.10;59.20;;;;;;5040219;28;20451;-72
2022/08/29 10:49:51;;;;;;;57.47;53.93;;;26.00;59.50;;;;;;5033690;28;20991;-73
2022/08/29 10:52:26;;;;;;;44.20;41.83;;;25.90;59.50;;;;;;5028134;28;20492;-72
2022/08/29 10:55:03;;;;;;;43.27;40.90;;;25.90;59.70;;;;;;5026632;28;20493;-72
2022/08/29 10:57:44;;;;;;;45.93;43.20;;;26.10;58.80;;;;;;5028450;28;20479;-73
2022/08/29 11:00:15;;;;;;;41.93;39.73;;;26.10;58.80;;;;;;5027503;28;20464;-69
2022/08/29 11:02:48;;;;;;;47.03;44.43;;;26.10;58.40;;;;;;5030044;28;20473;-72
2022/08/29 11:05:21;;;;;;;38.70;36.50;;;26.40;56.90;;;;;;5025989;28;20476;-71
2022/08/29 11:07:53;;;;;;;51.70;48.90;;;26.50;57.50;;;;;;5029073;28;20464;-71
2022/08/29 11:10:24;;;;;;;49.23;46.63;;;26.40;57.80;;;;;;5028292;28;20456;-71
2022/08/29 11:12:56;;;;;;;40.90;38.53;;;26.20;58.20;;;;;;5028753;28;20845;-71
2022/08/29 11:15:28;;;;;;;56.33;52.87;;;26.20;58.30;;;;;;5024234;28;20928;-73
2022/08/29 11:18:02;;;;;;;46.30;44.00;;;26.30;58.20;;;;;;5023213;28;20490;-73
2022/08/29 11:20:34;;;;;;;57.40;54.30;;;26.30;58.00;;;;;;5028973;28;20464;-72
2022/08/29 11:23:06;;;;;;;42.17;40.00;;;26.50;57.20;;;;;;5019805;28;20503;-73
2022/08/29 11:25:40;;;;;;;53.13;50.43;;;26.50;57.60;;;;;;5025227;28;20459;-72
2022/08/29 11:28:16;;;;;;;38.67;36.20;;;26.50;57.20;;;;;;5021090;28;20552;-72
2022/08/29 11:30:48;;;;;;;48.87;45.80;;;26.50;57.10;;;;;;5025362;28;20459;-72
2022/08/29 11:33:25;;;;;;;47.47;45.03;;;26.50;57.30;;;;;;5026847;28;20456;-73
2022/08/29 11:36:10;;;;;;;39.50;37.50;;;26.60;57.10;;;;;;5029293;28;20562;-73
2022/08/29 11:39:13;;;;;;;38.87;36.70;;;26.70;56.40;;;;;;5024843;28;20792;-72
2022/08/29 11:41:44;;;;;;;47.03;44.33;;;26.60;56.60;;;;;;4959660;28;20493;-72
2022/08/29 11:44:22;;;;;;;40.97;38.53;;;26.50;57.20;;;;;;5025022;28;20467;-72
2022/08/29 11:46:50;;;;;;;50.97;47.90;;;26.50;57.00;;;;;;5030312;28;20471;-72
2022/08/29 11:49:26;;;;;;;52.73;50.07;;;26.60;56.60;;;;;;5023982;28;20549;-72
2022/08/29 11:51:58;;;;;;;46.13;43.73;;;26.60;56.70;;;;;;5027904;28;20526;-72
2022/08/29 11:55:17;;;;;;;49.47;46.97;;;26.70;56.40;;;;;;5025487;28;20490;-71
2022/08/29 11:57:51;;;;;;;54.43;51.37;;;26.80;55.90;;;;;;5021679;28;20495;-72
2022/08/29 12:00:51;;;;;;;43.30;41.00;;;26.80;55.80;;;;;;5024780;28;20570;-72
2022/08/29 12:03:56;;;;;;;48.33;45.83;;;26.80;55.50;;;;;;5023249;28;20476;-73
2022/08/29 12:06:52;;;;;;;51.83;48.93;;;26.80;55.50;;;;;;5017866;28;20592;-72
2022/08/29 12:09:40;;;;;;;53.17;50.37;;;26.80;55.80;;;;;;5027062;28;20468;-72
2022/08/29 12:12:35;;;;;;;38.93;36.73;;;26.80;55.50;;;;;;5023333;28;20480;-71
2022/08/29 12:15:22;;;;;;;41.40;39.30;;;26.90;54.90;;;;;;5025311;28;20451;-72
2022/08/29 12:17:49;;;;;;;41.83;39.67;;;27.00;54.60;;;;;;5024597;28;20480;-71
2022/08/29 12:20:36;;;;;;;48.50;45.97;;;27.20;54.20;;;;;;5025767;28;20892;-71
2022/08/29 12:23:05;;;;;;;42.47;40.37;;;27.40;53.70;;;;;;5024105;28;20459;-71
2022/08/29 12:25:47;;;;;;;50.93;48.37;;;27.30;54.20;;;;;;5016997;28;20539;-72
2022/08/29 12:28:46;;;;;;;40.07;37.87;;;27.40;53.70;;;;;;5024760;28;20502;-72
2022/08/29 12:31:27;;;;;;;41.90;39.80;;;27.50;53.10;;;;;;5025401;28;20567;-71
2022/08/29 12:34:08;;;;;;;44.67;42.27;;;27.50;53.20;;;;;;5018996;28;20659;-71
2022/08/29 12:36:53;;;;;;;45.97;43.30;;;27.60;53.40;;;;;;5021030;28;20478;-71
2022/08/29 12:39:35;;;;;;;46.83;43.83;;;27.90;52.60;;;;;;5021822;28;20555;-71
2022/08/29 12:42:18;;;;;;;59.93;56.50;;;28.00;52.30;;;;;;5012377;28;20503;-71
2022/08/29 12:44:46;;;;;;;42.90;40.70;;;28.10;51.90;;;;;;5024445;28;20484;-71
2022/08/29 12:47:20;;;;;;;46.43;43.90;;;28.00;52.10;;;;;;5027113;28;20471;-72
2022/08/29 12:49:50;;;;;;;61.70;58.37;;;27.80;51.90;;;;;;5020203;28;20461;-71
2022/08/29 12:52:28;;;;;;;54.23;51.37;;;27.80;52.20;;;;;;5026344;28;20516;-71
2022/08/29 12:54:56;;;;;;;41.43;39.13;;;27.80;51.70;;;;;;5023674;28;20456;-71
2022/08/29 12:57:29;;;;;;;43.73;41.43;;;28.00;51.60;;;;;;5025664;28;20582;-71
2022/08/29 12:59:57;;;;;;;44.00;41.67;;;27.80;52.10;;;;;;5025892;28;20488;-71
2022/08/29 13:02:27;;;;;;;56.13;53.20;;;27.90;52.20;;;;;;5026967;28;20480;-72